West Tawakoni, Texas
Current Conditions -  °F | °C
As of 3:55 AM on Monday 22 Dec 2014 (Local Time) from KGVT Reporting Station
Overcast Overcast  
Wind Chill: 54°   Ceiling: 1500
Heat Index: 54°   Visibility: 10mi
Dew Point: 50°   Wind: 12mph
Humidity: 88%   Direction: 170°S
Pressure: 29.65"   Gusts: 18mph
Location:  32.9155°N, 96.1709°W
Report Text: KGVT 220955Z AUTO 17010G16KT 10SM BKN015 OVC023 12/10 A2965 RMK AO2
Loading
Personal Weather Stations






























Interactive Weather Map New forecast layout! Learn more

10-Day Weather Forecast

Advertisements
Track Severe Weather on mobile